sensor_id;sensor_type;location;lat;lon;timestamp;P1;durP1;ratioP1;P2;durP2;ratioP2
29824;SDS011;16713;52.916;12.834;2024-02-21T00:00:36;21.02;;;8.43;;
29824;SDS011;16713;52.916;12.834;2024-02-21T00:03:04;26.83;;;9.48;;
29824;SDS011;16713;52.916;12.834;2024-02-21T00:05:30;29.60;;;8.63;;
29824;SDS011;16713;52.916;12.834;2024-02-21T00:07:58;31.30;;;9.15;;
29824;SDS011;16713;52.916;12.834;2024-02-21T00:10:26;30.05;;;8.55;;
29824;SDS011;16713;52.916;12.834;2024-02-21T00:12:52;29.00;;;8.43;;
29824;SDS011;16713;52.916;12.834;2024-02-21T00:15:19;26.08;;;8.07;;
29824;SDS011;16713;52.916;12.834;2024-02-21T00:17:45;29.80;;;8.57;;
29824;SDS011;16713;52.916;12.834;2024-02-21T00:20:12;29.80;;;7.93;;
29824;SDS011;16713;52.916;12.834;2024-02-21T00:22:38;27.77;;;7.45;;
29824;SDS011;16713;52.916;12.834;2024-02-21T00:25:05;27.85;;;8.07;;
29824;SDS011;16713;52.916;12.834;2024-02-21T00:27:32;25.88;;;8.90;;
29824;SDS011;16713;52.916;12.834;2024-02-21T00:29:58;25.02;;;7.43;;
29824;SDS011;16713;52.916;12.834;2024-02-21T00:32:25;38.63;;;11.13;;
29824;SDS011;16713;52.916;12.834;2024-02-21T00:34:52;24.25;;;8.02;;
29824;SDS011;16713;52.916;12.834;2024-02-21T00:37:18;25.73;;;6.97;;
29824;SDS011;16713;52.916;12.834;2024-02-21T00:39:45;23.70;;;6.25;;
29824;SDS011;16713;52.916;12.834;2024-02-21T00:42:11;30.73;;;6.97;;
29824;SDS011;16713;52.916;12.834;2024-02-21T00:44:38;24.83;;;6.65;;
29824;SDS011;16713;52.916;12.834;2024-02-21T00:47:04;25.02;;;7.10;;
29824;SDS011;16713;52.916;12.834;2024-02-21T00:49:31;22.98;;;5.85;;
29824;SDS011;16713;52.916;12.834;2024-02-21T00:51:57;25.23;;;5.65;;
29824;SDS011;16713;52.916;12.834;2024-02-21T00:54:24;24.63;;;6.78;;
29824;SDS011;16713;52.916;12.834;2024-02-21T00:56:53;19.85;;;6.22;;
29824;SDS011;16713;52.916;12.834;2024-02-21T00:59:19;26.45;;;6.72;;
29824;SDS011;16713;52.916;12.834;2024-02-21T01:01:46;30.20;;;6.47;;
29824;SDS011;16713;52.916;12.834;2024-02-21T01:04:12;20.60;;;5.60;;
29824;SDS011;16713;52.916;12.834;2024-02-21T01:06:39;23.85;;;6.47;;
29824;SDS011;16713;52.916;12.834;2024-02-21T01:09:09;24.42;;;6.20;;
29824;SDS011;16713;52.916;12.834;2024-02-21T01:11:35;27.75;;;6.20;;
29824;SDS011;16713;52.916;12.834;2024-02-21T01:14:02;23.45;;;6.30;;
29824;SDS011;16713;52.916;12.834;2024-02-21T01:16:29;20.15;;;6.35;;
29824;SDS011;16713;52.916;12.834;2024-02-21T01:18:55;25.17;;;6.82;;
29824;SDS011;16713;52.916;12.834;2024-02-21T01:21:22;19.98;;;6.93;;
29824;SDS011;16713;52.916;12.834;2024-02-21T01:23:48;20.52;;;6.07;;
29824;SDS011;16713;52.916;12.834;2024-02-21T01:26:14;17.55;;;6.40;;
29824;SDS011;16713;52.916;12.834;2024-02-21T01:28:41;22.42;;;6.93;;
29824;SDS011;16713;52.916;12.834;2024-02-21T01:31:08;26.05;;;7.38;;
29824;SDS011;16713;52.916;12.834;2024-02-21T01:33:34;19.58;;;5.85;;
29824;SDS011;16713;52.916;12.834;2024-02-21T01:36:04;23.60;;;7.35;;
29824;SDS011;16713;52.916;12.834;2024-02-21T01:38:34;20.80;;;7.00;;
29824;SDS011;16713;52.916;12.834;2024-02-21T01:41:01;21.52;;;8.52;;
29824;SDS011;16713;52.916;12.834;2024-02-21T01:43:27;21.98;;;7.28;;
29824;SDS011;16713;52.916;12.834;2024-02-21T01:45:57;23.40;;;7.47;;
29824;SDS011;16713;52.916;12.834;2024-02-21T01:48:24;21.17;;;6.55;;
29824;SDS011;16713;52.916;12.834;2024-02-21T01:50:52;20.50;;;6.97;;
29824;SDS011;16713;52.916;12.834;2024-02-21T01:53:21;21.02;;;6.55;;
29824;SDS011;16713;52.916;12.834;2024-02-21T01:55:49;23.13;;;7.78;;
29824;SDS011;16713;52.916;12.834;2024-02-21T01:58:16;19.63;;;7.05;;
29824;SDS011;16713;52.916;12.834;2024-02-21T02:00:45;18.60;;;6.60;;
29824;SDS011;16713;52.916;12.834;2024-02-21T02:03:14;24.58;;;6.75;;
29824;SDS011;16713;52.916;12.834;2024-02-21T02:05:46;20.23;;;7.00;;
29824;SDS011;16713;52.916;12.834;2024-02-21T02:08:14;17.08;;;6.43;;
29824;SDS011;16713;52.916;12.834;2024-02-21T02:10:41;17.48;;;6.40;;
29824;SDS011;16713;52.916;12.834;2024-02-21T02:13:09;19.15;;;6.88;;
29824;SDS011;16713;52.916;12.834;2024-02-21T02:15:42;16.55;;;7.47;;
29824;SDS011;16713;52.916;12.834;2024-02-21T02:18:10;20.17;;;6.95;;
29824;SDS011;16713;52.916;12.834;2024-02-21T02:20:38;24.20;;;6.95;;
29824;SDS011;16713;52.916;12.834;2024-02-21T02:25:48;19.48;;;6.70;;
29824;SDS011;16713;52.916;12.834;2024-02-21T02:28:17;23.65;;;7.88;;
29824;SDS011;16713;52.916;12.834;2024-02-21T02:30:44;23.20;;;7.88;;
29824;SDS011;16713;52.916;12.834;2024-02-21T02:33:11;21.58;;;6.82;;
29824;SDS011;16713;52.916;12.834;2024-02-21T02:35:37;20.42;;;7.63;;
29824;SDS011;16713;52.916;12.834;2024-02-21T02:38:04;25.05;;;7.43;;
29824;SDS011;16713;52.916;12.834;2024-02-21T02:40:31;23.90;;;7.63;;
29824;SDS011;16713;52.916;12.834;2024-02-21T02:42:59;18.70;;;7.10;;
29824;SDS011;16713;52.916;12.834;2024-02-21T02:45:25;26.92;;;9.52;;
29824;SDS011;16713;52.916;12.834;2024-02-21T02:47:53;19.50;;;7.32;;
29824;SDS011;16713;52.916;12.834;2024-02-21T02:50:20;27.65;;;8.05;;
29824;SDS011;16713;52.916;12.834;2024-02-21T02:52:47;18.00;;;7.72;;
29824;SDS011;16713;52.916;12.834;2024-02-21T02:55:13;25.83;;;8.32;;
29824;SDS011;16713;52.916;12.834;2024-02-21T02:57:40;23.17;;;10.00;;
29824;SDS011;16713;52.916;12.834;2024-02-21T03:00:08;23.95;;;8.15;;
29824;SDS011;16713;52.916;12.834;2024-02-21T03:02:38;25.50;;;10.07;;
29824;SDS011;16713;52.916;12.834;2024-02-21T03:05:15;20.17;;;7.82;;
29824;SDS011;16713;52.916;12.834;2024-02-21T03:07:47;21.67;;;8.35;;
29824;SDS011;16713;52.916;12.834;2024-02-21T03:10:15;20.52;;;8.90;;
29824;SDS011;16713;52.916;12.834;2024-02-21T03:12:45;23.77;;;8.73;;
29824;SDS011;16713;52.916;12.834;2024-02-21T03:15:12;27.15;;;8.75;;
29824;SDS011;16713;52.916;12.834;2024-02-21T03:17:40;23.35;;;8.23;;
29824;SDS011;16713;52.916;12.834;2024-02-21T03:20:07;16.65;;;7.20;;
29824;SDS011;16713;52.916;12.834;2024-02-21T03:22:38;24.48;;;9.93;;
29824;SDS011;16713;52.916;12.834;2024-02-21T03:25:05;24.02;;;8.80;;
29824;SDS011;16713;52.916;12.834;2024-02-21T03:27:33;22.23;;;8.15;;
29824;SDS011;16713;52.916;12.834;2024-02-21T03:29:59;21.75;;;8.75;;
29824;SDS011;16713;52.916;12.834;2024-02-21T03:32:26;29.50;;;9.57;;
29824;SDS011;16713;52.916;12.834;2024-02-21T03:34:54;27.23;;;9.27;;
29824;SDS011;16713;52.916;12.834;2024-02-21T03:37:21;22.85;;;9.10;;
29824;SDS011;16713;52.916;12.834;2024-02-21T03:39:47;29.23;;;9.15;;
29824;SDS011;16713;52.916;12.834;2024-02-21T03:42:14;23.42;;;8.77;;
29824;SDS011;16713;52.916;12.834;2024-02-21T03:44:41;26.75;;;8.75;;
29824;SDS011;16713;52.916;12.834;2024-02-21T03:47:07;22.52;;;8.60;;
29824;SDS011;16713;52.916;12.834;2024-02-21T03:49:37;22.77;;;8.93;;
29824;SDS011;16713;52.916;12.834;2024-02-21T03:52:04;26.65;;;8.52;;
29824;SDS011;16713;52.916;12.834;2024-02-21T03:54:30;20.45;;;9.13;;
29824;SDS011;16713;52.916;12.834;2024-02-21T03:56:57;29.63;;;9.00;;
29824;SDS011;16713;52.916;12.834;2024-02-21T03:59:23;24.02;;;8.50;;
29824;SDS011;16713;52.916;12.834;2024-02-21T04:01:51;22.42;;;9.55;;
29824;SDS011;16713;52.916;12.834;2024-02-21T04:04:19;23.08;;;9.35;;
29824;SDS011;16713;52.916;12.834;2024-02-21T04:06:50;26.77;;;9.13;;
29824;SDS011;16713;52.916;12.834;2024-02-21T04:09:17;22.55;;;8.73;;
29824;SDS011;16713;52.916;12.834;2024-02-21T04:11:44;19.52;;;7.65;;
29824;SDS011;16713;52.916;12.834;2024-02-21T04:14:11;25.95;;;10.35;;
29824;SDS011;16713;52.916;12.834;2024-02-21T04:16:38;21.60;;;8.75;;
29824;SDS011;16713;52.916;12.834;2024-02-21T04:19:06;22.42;;;9.27;;
29824;SDS011;16713;52.916;12.834;2024-02-21T04:21:32;28.25;;;9.75;;
29824;SDS011;16713;52.916;12.834;2024-02-21T04:23:59;21.63;;;9.07;;
29824;SDS011;16713;52.916;12.834;2024-02-21T04:26:26;23.90;;;8.60;;
29824;SDS011;16713;52.916;12.834;2024-02-21T04:28:52;22.27;;;8.95;;
29824;SDS011;16713;52.916;12.834;2024-02-21T04:31:19;30.38;;;12.25;;
29824;SDS011;16713;52.916;12.834;2024-02-21T04:33:45;25.90;;;10.65;;
29824;SDS011;16713;52.916;12.834;2024-02-21T04:36:12;21.45;;;8.93;;
29824;SDS011;16713;52.916;12.834;2024-02-21T04:38:39;24.40;;;10.20;;
29824;SDS011;16713;52.916;12.834;2024-02-21T04:41:06;19.73;;;9.23;;
29824;SDS011;16713;52.916;12.834;2024-02-21T04:43:34;21.77;;;9.90;;
29824;SDS011;16713;52.916;12.834;2024-02-21T04:46:01;21.10;;;9.52;;
29824;SDS011;16713;52.916;12.834;2024-02-21T04:48:27;25.48;;;9.45;;
29824;SDS011;16713;52.916;12.834;2024-02-21T04:50:54;27.40;;;11.82;;
29824;SDS011;16713;52.916;12.834;2024-02-21T04:53:20;27.55;;;9.30;;
29824;SDS011;16713;52.916;12.834;2024-02-21T04:55:47;22.40;;;8.43;;
29824;SDS011;16713;52.916;12.834;2024-02-21T04:58:13;28.45;;;10.52;;
29824;SDS011;16713;52.916;12.834;2024-02-21T05:00:40;24.48;;;9.93;;
29824;SDS011;16713;52.916;12.834;2024-02-21T05:03:06;25.58;;;9.00;;
29824;SDS011;16713;52.916;12.834;2024-02-21T05:05:33;30.00;;;10.30;;
29824;SDS011;16713;52.916;12.834;2024-02-21T05:07:59;23.00;;;9.57;;
29824;SDS011;16713;52.916;12.834;2024-02-21T05:10:26;26.92;;;11.25;;
29824;SDS011;16713;52.916;12.834;2024-02-21T05:12:53;25.65;;;9.90;;
29824;SDS011;16713;52.916;12.834;2024-02-21T05:15:19;27.20;;;10.48;;
29824;SDS011;16713;52.916;12.834;2024-02-21T05:17:46;21.15;;;10.68;;
29824;SDS011;16713;52.916;12.834;2024-02-21T05:20:12;22.17;;;10.00;;
29824;SDS011;16713;52.916;12.834;2024-02-21T05:22:39;20.73;;;9.05;;
29824;SDS011;16713;52.916;12.834;2024-02-21T05:25:06;21.33;;;10.23;;
29824;SDS011;16713;52.916;12.834;2024-02-21T05:27:33;29.95;;;11.77;;
29824;SDS011;16713;52.916;12.834;2024-02-21T05:29:59;26.90;;;11.68;;
29824;SDS011;16713;52.916;12.834;2024-02-21T05:32:26;27.08;;;10.95;;
29824;SDS011;16713;52.916;12.834;2024-02-21T05:34:52;26.88;;;11.02;;
29824;SDS011;16713;52.916;12.834;2024-02-21T05:37:19;30.55;;;11.45;;
29824;SDS011;16713;52.916;12.834;2024-02-21T05:39:46;33.53;;;11.90;;
29824;SDS011;16713;52.916;12.834;2024-02-21T05:42:12;30.85;;;10.95;;
29824;SDS011;16713;52.916;12.834;2024-02-21T05:44:39;26.48;;;10.85;;
29824;SDS011;16713;52.916;12.834;2024-02-21T05:47:05;20.42;;;10.13;;
29824;SDS011;16713;52.916;12.834;2024-02-21T05:49:36;34.85;;;11.50;;
29824;SDS011;16713;52.916;12.834;2024-02-21T05:52:03;22.48;;;9.98;;
29824;SDS011;16713;52.916;12.834;2024-02-21T05:54:32;29.20;;;10.73;;
29824;SDS011;16713;52.916;12.834;2024-02-21T05:56:59;28.70;;;10.60;;
29824;SDS011;16713;52.916;12.834;2024-02-21T05:59:25;30.42;;;10.90;;
29824;SDS011;16713;52.916;12.834;2024-02-21T06:01:57;23.10;;;10.95;;
29824;SDS011;16713;52.916;12.834;2024-02-21T06:04:24;23.15;;;11.25;;
29824;SDS011;16713;52.916;12.834;2024-02-21T06:06:51;24.88;;;11.10;;
29824;SDS011;16713;52.916;12.834;2024-02-21T06:09:18;29.95;;;12.30;;
29824;SDS011;16713;52.916;12.834;2024-02-21T06:11:44;22.13;;;9.75;;
29824;SDS011;16713;52.916;12.834;2024-02-21T06:14:12;21.65;;;10.73;;
29824;SDS011;16713;52.916;12.834;2024-02-21T06:16:39;28.77;;;12.60;;
29824;SDS011;16713;52.916;12.834;2024-02-21T06:19:05;22.90;;;10.50;;
29824;SDS011;16713;52.916;12.834;2024-02-21T06:21:35;33.65;;;12.13;;
29824;SDS011;16713;52.916;12.834;2024-02-21T06:24:03;26.65;;;11.48;;
29824;SDS011;16713;52.916;12.834;2024-02-21T06:26:30;29.40;;;12.68;;
29824;SDS011;16713;52.916;12.834;2024-02-21T06:28:56;25.75;;;11.75;;
29824;SDS011;16713;52.916;12.834;2024-02-21T06:31:23;31.50;;;12.93;;
29824;SDS011;16713;52.916;12.834;2024-02-21T06:33:50;27.45;;;10.95;;
29824;SDS011;16713;52.916;12.834;2024-02-21T06:36:16;27.13;;;12.52;;
29824;SDS011;16713;52.916;12.834;2024-02-21T06:38:43;26.80;;;12.25;;
29824;SDS011;16713;52.916;12.834;2024-02-21T06:41:16;27.20;;;12.73;;
29824;SDS011;16713;52.916;12.834;2024-02-21T06:43:47;25.98;;;11.98;;
29824;SDS011;16713;52.916;12.834;2024-02-21T06:46:27;29.95;;;12.40;;
29824;SDS011;16713;52.916;12.834;2024-02-21T06:48:56;32.47;;;13.10;;
29824;SDS011;16713;52.916;12.834;2024-02-21T06:51:23;26.52;;;12.55;;
29824;SDS011;16713;52.916;12.834;2024-02-21T06:53:51;26.73;;;12.23;;
29824;SDS011;16713;52.916;12.834;2024-02-21T06:56:17;27.45;;;11.90;;
29824;SDS011;16713;52.916;12.834;2024-02-21T06:58:44;20.95;;;11.90;;
29824;SDS011;16713;52.916;12.834;2024-02-21T07:01:11;26.75;;;13.32;;
29824;SDS011;16713;52.916;12.834;2024-02-21T07:03:38;26.52;;;12.10;;
29824;SDS011;16713;52.916;12.834;2024-02-21T07:06:04;28.95;;;12.32;;
29824;SDS011;16713;52.916;12.834;2024-02-21T07:08:31;24.40;;;11.82;;
29824;SDS011;16713;52.916;12.834;2024-02-21T07:10:57;27.77;;;13.85;;
29824;SDS011;16713;52.916;12.834;2024-02-21T07:13:24;24.70;;;11.80;;
29824;SDS011;16713;52.916;12.834;2024-02-21T07:15:50;29.50;;;12.45;;
29824;SDS011;16713;52.916;12.834;2024-02-21T07:18:17;28.25;;;11.88;;
29824;SDS011;16713;52.916;12.834;2024-02-21T07:20:44;28.73;;;12.32;;
29824;SDS011;16713;52.916;12.834;2024-02-21T07:23:10;25.45;;;11.52;;
29824;SDS011;16713;52.916;12.834;2024-02-21T07:25:36;28.95;;;11.90;;
29824;SDS011;16713;52.916;12.834;2024-02-21T07:28:03;26.10;;;13.43;;
29824;SDS011;16713;52.916;12.834;2024-02-21T07:30:30;23.15;;;11.77;;
29824;SDS011;16713;52.916;12.834;2024-02-21T07:32:57;24.77;;;14.48;;
29824;SDS011;16713;52.916;12.834;2024-02-21T07:35:23;27.25;;;13.23;;
29824;SDS011;16713;52.916;12.834;2024-02-21T07:37:50;28.50;;;13.40;;
29824;SDS011;16713;52.916;12.834;2024-02-21T07:40:16;28.67;;;13.10;;
29824;SDS011;16713;52.916;12.834;2024-02-21T07:42:43;30.70;;;14.80;;
29824;SDS011;16713;52.916;12.834;2024-02-21T07:45:16;29.75;;;12.05;;
29824;SDS011;16713;52.916;12.834;2024-02-21T07:47:44;30.55;;;13.55;;
29824;SDS011;16713;52.916;12.834;2024-02-21T07:50:10;30.25;;;12.93;;
29824;SDS011;16713;52.916;12.834;2024-02-21T07:52:37;26.23;;;12.95;;
29824;SDS011;16713;52.916;12.834;2024-02-21T07:55:04;28.23;;;12.98;;
29824;SDS011;16713;52.916;12.834;2024-02-21T07:57:30;27.77;;;13.63;;
29824;SDS011;16713;52.916;12.834;2024-02-21T07:59:57;24.23;;;11.52;;
29824;SDS011;16713;52.916;12.834;2024-02-21T08:02:23;22.70;;;11.65;;
29824;SDS011;16713;52.916;12.834;2024-02-21T08:04:50;27.17;;;12.30;;
29824;SDS011;16713;52.916;12.834;2024-02-21T08:07:16;27.50;;;13.45;;
29824;SDS011;16713;52.916;12.834;2024-02-21T08:09:43;25.45;;;13.55;;
29824;SDS011;16713;52.916;12.834;2024-02-21T08:12:09;25.88;;;13.60;;
29824;SDS011;16713;52.916;12.834;2024-02-21T08:14:36;26.52;;;12.60;;
29824;SDS011;16713;52.916;12.834;2024-02-21T08:17:02;26.90;;;12.70;;
29824;SDS011;16713;52.916;12.834;2024-02-21T08:19:30;27.33;;;14.02;;
29824;SDS011;16713;52.916;12.834;2024-02-21T08:21:57;27.23;;;13.10;;
29824;SDS011;16713;52.916;12.834;2024-02-21T08:24:23;23.88;;;12.20;;
29824;SDS011;16713;52.916;12.834;2024-02-21T08:26:50;24.23;;;13.48;;
29824;SDS011;16713;52.916;12.834;2024-02-21T08:29:16;24.13;;;12.95;;
29824;SDS011;16713;52.916;12.834;2024-02-21T08:31:43;27.98;;;13.40;;
29824;SDS011;16713;52.916;12.834;2024-02-21T08:34:09;30.25;;;12.95;;
29824;SDS011;16713;52.916;12.834;2024-02-21T08:36:36;29.30;;;14.25;;
29824;SDS011;16713;52.916;12.834;2024-02-21T08:39:03;30.35;;;13.82;;
29824;SDS011;16713;52.916;12.834;2024-02-21T08:41:32;24.83;;;12.75;;
29824;SDS011;16713;52.916;12.834;2024-02-21T08:44:22;26.38;;;13.43;;
29824;SDS011;16713;52.916;12.834;2024-02-21T08:46:49;31.15;;;14.68;;
29824;SDS011;16713;52.916;12.834;2024-02-21T08:49:16;26.15;;;13.57;;
29824;SDS011;16713;52.916;12.834;2024-02-21T08:51:42;24.77;;;13.20;;
29824;SDS011;16713;52.916;12.834;2024-02-21T08:54:10;26.63;;;13.85;;
29824;SDS011;16713;52.916;12.834;2024-02-21T08:56:36;28.17;;;14.07;;
29824;SDS011;16713;52.916;12.834;2024-02-21T08:59:03;29.17;;;14.40;;
29824;SDS011;16713;52.916;12.834;2024-02-21T09:01:30;25.63;;;12.38;;
29824;SDS011;16713;52.916;12.834;2024-02-21T09:03:57;30.00;;;14.10;;
29824;SDS011;16713;52.916;12.834;2024-02-21T09:06:24;26.52;;;14.07;;
29824;SDS011;16713;52.916;12.834;2024-02-21T09:08:50;23.45;;;13.02;;
29824;SDS011;16713;52.916;12.834;2024-02-21T09:11:17;22.17;;;12.65;;
29824;SDS011;16713;52.916;12.834;2024-02-21T09:13:44;25.27;;;13.20;;
29824;SDS011;16713;52.916;12.834;2024-02-21T09:16:10;26.10;;;13.05;;
29824;SDS011;16713;52.916;12.834;2024-02-21T09:18:37;22.80;;;13.10;;
29824;SDS011;16713;52.916;12.834;2024-02-21T09:21:03;33.15;;;15.07;;
29824;SDS011;16713;52.916;12.834;2024-02-21T09:23:30;27.65;;;13.25;;
29824;SDS011;16713;52.916;12.834;2024-02-21T09:25:58;27.05;;;14.15;;
29824;SDS011;16713;52.916;12.834;2024-02-21T09:28:27;22.70;;;13.55;;
29824;SDS011;16713;52.916;12.834;2024-02-21T09:30:53;25.50;;;13.60;;
29824;SDS011;16713;52.916;12.834;2024-02-21T09:33:20;27.63;;;14.02;;
29824;SDS011;16713;52.916;12.834;2024-02-21T09:35:57;28.35;;;14.07;;
29824;SDS011;16713;52.916;12.834;2024-02-21T09:38:24;29.98;;;14.98;;
29824;SDS011;16713;52.916;12.834;2024-02-21T09:40:58;26.55;;;13.43;;
29824;SDS011;16713;52.916;12.834;2024-02-21T09:43:29;26.63;;;13.52;;
29824;SDS011;16713;52.916;12.834;2024-02-21T09:45:55;26.58;;;12.50;;
29824;SDS011;16713;52.916;12.834;2024-02-21T09:51:27;23.90;;;13.27;;
29824;SDS011;16713;52.916;12.834;2024-02-21T09:53:56;23.45;;;13.68;;
29824;SDS011;16713;52.916;12.834;2024-02-21T09:56:40;20.88;;;13.35;;
29824;SDS011;16713;52.916;12.834;2024-02-21T09:59:06;22.38;;;12.93;;
29824;SDS011;16713;52.916;12.834;2024-02-21T10:01:34;21.92;;;12.77;;
29824;SDS011;16713;52.916;12.834;2024-02-21T10:04:01;19.88;;;11.45;;
29824;SDS011;16713;52.916;12.834;2024-02-21T10:06:29;22.90;;;12.65;;
29824;SDS011;16713;52.916;12.834;2024-02-21T10:08:56;21.98;;;11.30;;
29824;SDS011;16713;52.916;12.834;2024-02-21T10:11:23;22.10;;;12.35;;
29824;SDS011;16713;52.916;12.834;2024-02-21T10:13:50;21.00;;;12.30;;
29824;SDS011;16713;52.916;12.834;2024-02-21T10:16:17;32.38;;;14.32;;
29824;SDS011;16713;52.916;12.834;2024-02-21T10:18:44;18.58;;;10.45;;
29824;SDS011;16713;52.916;12.834;2024-02-21T10:21:10;21.80;;;12.13;;
29824;SDS011;16713;52.916;12.834;2024-02-21T10:23:40;21.02;;;10.43;;
29824;SDS011;16713;52.916;12.834;2024-02-21T10:26:11;19.77;;;11.10;;
29824;SDS011;16713;52.916;12.834;2024-02-21T10:28:38;20.58;;;10.80;;
29824;SDS011;16713;52.916;12.834;2024-02-21T10:31:22;17.55;;;10.63;;
29824;SDS011;16713;52.916;12.834;2024-02-21T10:33:57;19.05;;;10.98;;
29824;SDS011;16713;52.916;12.834;2024-02-21T10:36:25;22.33;;;11.07;;
29824;SDS011;16713;52.916;12.834;2024-02-21T10:38:53;19.02;;;11.60;;
29824;SDS011;16713;52.916;12.834;2024-02-21T10:41:21;19.90;;;11.00;;
29824;SDS011;16713;52.916;12.834;2024-02-21T10:43:52;18.77;;;11.13;;
29824;SDS011;16713;52.916;12.834;2024-02-21T10:46:22;20.35;;;12.57;;
29824;SDS011;16713;52.916;12.834;2024-02-21T10:49:01;21.25;;;12.07;;
29824;SDS011;16713;52.916;12.834;2024-02-21T10:51:33;20.90;;;12.20;;
29824;SDS011;16713;52.916;12.834;2024-02-21T10:54:09;21.15;;;11.13;;
29824;SDS011;16713;52.916;12.834;2024-02-21T10:56:51;20.70;;;12.90;;
29824;SDS011;16713;52.916;12.834;2024-02-21T10:59:18;22.52;;;12.48;;
29824;SDS011;16713;52.916;12.834;2024-02-21T11:01:45;24.73;;;11.65;;
29824;SDS011;16713;52.916;12.834;2024-02-21T11:04:12;21.95;;;11.82;;
29824;SDS011;16713;52.916;12.834;2024-02-21T11:06:39;20.02;;;12.10;;
29824;SDS011;16713;52.916;12.834;2024-02-21T11:09:08;23.30;;;12.27;;
29824;SDS011;16713;52.916;12.834;2024-02-21T11:11:45;21.67;;;11.82;;
29824;SDS011;16713;52.916;12.834;2024-02-21T11:14:18;26.77;;;12.05;;
29824;SDS011;16713;52.916;12.834;2024-02-21T11:16:46;20.33;;;10.95;;
29824;SDS011;16713;52.916;12.834;2024-02-21T11:19:20;18.98;;;11.80;;
29824;SDS011;16713;52.916;12.834;2024-02-21T11:21:49;27.77;;;12.80;;
29824;SDS011;16713;52.916;12.834;2024-02-21T11:24:28;23.70;;;11.30;;
29824;SDS011;16713;52.916;12.834;2024-02-21T11:29:39;22.65;;;12.10;;
29824;SDS011;16713;52.916;12.834;2024-02-21T11:32:13;22.58;;;11.43;;
29824;SDS011;16713;52.916;12.834;2024-02-21T11:34:41;19.75;;;11.18;;
29824;SDS011;16713;52.916;12.834;2024-02-21T11:37:18;21.73;;;11.20;;
29824;SDS011;16713;52.916;12.834;2024-02-21T11:39:45;19.42;;;11.27;;
29824;SDS011;16713;52.916;12.834;2024-02-21T11:42:11;19.70;;;11.70;;
29824;SDS011;16713;52.916;12.834;2024-02-21T11:44:38;19.10;;;11.60;;
29824;SDS011;16713;52.916;12.834;2024-02-21T11:47:06;21.38;;;11.20;;
29824;SDS011;16713;52.916;12.834;2024-02-21T11:49:43;25.95;;;11.20;;
29824;SDS011;16713;52.916;12.834;2024-02-21T11:52:12;17.63;;;10.45;;
29824;SDS011;16713;52.916;12.834;2024-02-21T11:54:42;19.45;;;11.40;;
29824;SDS011;16713;52.916;12.834;2024-02-21T11:57:09;23.05;;;11.15;;
29824;SDS011;16713;52.916;12.834;2024-02-21T11:59:39;20.17;;;10.98;;
29824;SDS011;16713;52.916;12.834;2024-02-21T12:02:06;19.23;;;10.48;;
29824;SDS011;16713;52.916;12.834;2024-02-21T12:04:33;19.15;;;10.75;;
29824;SDS011;16713;52.916;12.834;2024-02-21T12:07:00;17.55;;;10.75;;
29824;SDS011;16713;52.916;12.834;2024-02-21T12:09:30;23.25;;;10.57;;
29824;SDS011;16713;52.916;12.834;2024-02-21T12:11:57;22.17;;;10.40;;
29824;SDS011;16713;52.916;12.834;2024-02-21T12:14:29;15.07;;;9.75;;
29824;SDS011;16713;52.916;12.834;2024-02-21T12:16:57;20.08;;;9.27;;
29824;SDS011;16713;52.916;12.834;2024-02-21T12:19:24;20.25;;;11.30;;
29824;SDS011;16713;52.916;12.834;2024-02-21T12:21:51;14.20;;;9.30;;
29824;SDS011;16713;52.916;12.834;2024-02-21T12:24:24;18.52;;;9.32;;
29824;SDS011;16713;52.916;12.834;2024-02-21T12:26:52;17.00;;;9.43;;
29824;SDS011;16713;52.916;12.834;2024-02-21T12:29:19;18.77;;;8.98;;
29824;SDS011;16713;52.916;12.834;2024-02-21T12:31:47;18.67;;;9.00;;
29824;SDS011;16713;52.916;12.834;2024-02-21T12:34:14;15.15;;;9.45;;
29824;SDS011;16713;52.916;12.834;2024-02-21T12:36:44;19.67;;;10.02;;
29824;SDS011;16713;52.916;12.834;2024-02-21T12:39:14;15.47;;;8.97;;
29824;SDS011;16713;52.916;12.834;2024-02-21T12:41:42;15.98;;;9.85;;
29824;SDS011;16713;52.916;12.834;2024-02-21T12:44:10;18.17;;;10.10;;
29824;SDS011;16713;52.916;12.834;2024-02-21T12:46:37;13.65;;;9.45;;
29824;SDS011;16713;52.916;12.834;2024-02-21T12:49:06;20.20;;;9.63;;
29824;SDS011;16713;52.916;12.834;2024-02-21T12:51:35;18.25;;;9.40;;
29824;SDS011;16713;52.916;12.834;2024-02-21T12:54:02;19.52;;;9.77;;
29824;SDS011;16713;52.916;12.834;2024-02-21T12:56:31;17.38;;;10.00;;
29824;SDS011;16713;52.916;12.834;2024-02-21T12:58:58;14.27;;;9.18;;
29824;SDS011;16713;52.916;12.834;2024-02-21T13:01:24;15.65;;;8.98;;
29824;SDS011;16713;52.916;12.834;2024-02-21T13:03:52;21.13;;;9.38;;
29824;SDS011;16713;52.916;12.834;2024-02-21T13:06:20;14.48;;;9.00;;
29824;SDS011;16713;52.916;12.834;2024-02-21T13:08:46;20.92;;;8.77;;
29824;SDS011;16713;52.916;12.834;2024-02-21T13:11:13;21.40;;;10.02;;
29824;SDS011;16713;52.916;12.834;2024-02-21T13:13:39;16.08;;;9.30;;
29824;SDS011;16713;52.916;12.834;2024-02-21T13:16:06;14.20;;;8.90;;
29824;SDS011;16713;52.916;12.834;2024-02-21T13:18:34;22.63;;;10.23;;
29824;SDS011;16713;52.916;12.834;2024-02-21T13:21:01;15.80;;;9.35;;
29824;SDS011;16713;52.916;12.834;2024-02-21T13:23:28;17.08;;;9.68;;
29824;SDS011;16713;52.916;12.834;2024-02-21T13:25:55;16.02;;;8.32;;
29824;SDS011;16713;52.916;12.834;2024-02-21T13:28:21;17.92;;;9.02;;
29824;SDS011;16713;52.916;12.834;2024-02-21T13:30:48;14.45;;;8.50;;
29824;SDS011;16713;52.916;12.834;2024-02-21T13:33:14;16.80;;;8.32;;
29824;SDS011;16713;52.916;12.834;2024-02-21T13:35:41;17.35;;;8.05;;
29824;SDS011;16713;52.916;12.834;2024-02-21T13:38:07;11.23;;;7.90;;
29824;SDS011;16713;52.916;12.834;2024-02-21T13:40:36;13.50;;;8.07;;
29824;SDS011;16713;52.916;12.834;2024-02-21T13:43:03;15.93;;;7.57;;
29824;SDS011;16713;52.916;12.834;2024-02-21T13:45:29;12.23;;;8.13;;
29824;SDS011;16713;52.916;12.834;2024-02-21T13:47:57;17.13;;;8.25;;
29824;SDS011;16713;52.916;12.834;2024-02-21T13:50:29;16.88;;;8.27;;
29824;SDS011;16713;52.916;12.834;2024-02-21T13:55:23;18.00;;;7.88;;
29824;SDS011;16713;52.916;12.834;2024-02-21T13:57:52;17.95;;;7.70;;
29824;SDS011;16713;52.916;12.834;2024-02-21T14:00:19;16.40;;;7.63;;
29824;SDS011;16713;52.916;12.834;2024-02-21T14:02:46;14.52;;;7.78;;
29824;SDS011;16713;52.916;12.834;2024-02-21T14:05:13;13.20;;;7.35;;
29824;SDS011;16713;52.916;12.834;2024-02-21T14:07:41;15.60;;;6.90;;
29824;SDS011;16713;52.916;12.834;2024-02-21T14:10:08;11.75;;;6.30;;
29824;SDS011;16713;52.916;12.834;2024-02-21T14:12:35;9.43;;;6.40;;
29824;SDS011;16713;52.916;12.834;2024-02-21T14:15:02;9.75;;;6.00;;
29824;SDS011;16713;52.916;12.834;2024-02-21T14:17:29;13.32;;;6.50;;
29824;SDS011;16713;52.916;12.834;2024-02-21T14:19:57;17.38;;;6.35;;
29824;SDS011;16713;52.916;12.834;2024-02-21T14:22:23;13.52;;;6.75;;
29824;SDS011;16713;52.916;12.834;2024-02-21T14:24:50;23.10;;;9.50;;
29824;SDS011;16713;52.916;12.834;2024-02-21T14:27:17;13.52;;;7.80;;
29824;SDS011;16713;52.916;12.834;2024-02-21T14:29:43;15.52;;;6.90;;